Time;durP1;ratioP1;P1;durP2;ratioP2;P2;SDS_P1;SDS_P2;PMS_P1;PMS_P2;Temp;Humidity;BMP_temperature;BMP_pressure;BME280_temperature;BME280_humidity;BME280_pressure;Samples;Min_cycle;Max_cycle;Signal;HPM_P1;HPM_P2
2022/08/27 00:08:42;;;;;;;5.58;4.40;;;25.80;91.80;;;;;;7542706;77;26951;-56
2022/08/27 00:18:46;;;;;;;5.45;4.30;;;25.80;91.90;;;;;;7551100;77;26819;-57
2022/08/27 00:28:49;;;;;;;5.75;4.30;;;25.70;92.00;;;;;;7518768;77;26304;-56
2022/08/27 00:38:52;;;;;;;7.17;5.15;;;25.70;91.90;;;;;;7536844;77;26269;-55
2022/08/27 00:48:57;;;;;;;5.87;4.20;;;25.70;91.90;;;;;;7543149;77;26278;-57
2022/08/27 00:59:01;;;;;;;4.72;3.85;;;25.70;92.10;;;;;;7544795;77;26280;-56
2022/08/27 01:09:10;;;;;;;9.90;4.40;;;25.70;92.00;;;;;;7542541;77;26336;-59
2022/08/27 01:19:27;;;;;;;5.37;3.42;;;25.60;92.00;;;;;;7547701;77;26270;-56
2022/08/27 01:29:30;;;;;;;6.22;4.22;;;25.60;92.00;;;;;;7497465;77;26280;-56
2022/08/27 01:39:38;;;;;;;6.60;4.10;;;25.60;92.00;;;;;;7536553;77;26355;-55
2022/08/27 01:49:41;;;;;;;5.05;3.70;;;25.60;92.00;;;;;;7539699;77;26798;-59
2022/08/27 01:59:43;;;;;;;6.08;3.87;;;25.60;92.10;;;;;;7560784;77;26252;-57
2022/08/27 02:09:46;;;;;;;7.03;4.17;;;25.50;91.90;;;;;;7552644;77;26847;-57
2022/08/27 02:19:48;;;;;;;5.65;4.37;;;25.50;92.10;;;;;;7548562;77;26348;-57
2022/08/27 02:29:51;;;;;;;4.60;3.83;;;25.50;92.10;;;;;;7525347;77;26338;-57
2022/08/27 02:39:53;;;;;;;6.37;4.20;;;25.50;92.10;;;;;;7552368;77;26874;-57
2022/08/27 02:49:56;;;;;;;7.95;4.12;;;25.40;92.20;;;;;;7553152;77;26319;-58
2022/08/27 02:59:58;;;;;;;5.62;3.77;;;25.40;92.30;;;;;;7540005;77;26766;-58
2022/08/27 03:10:01;;;;;;;7.87;4.35;;;25.40;92.10;;;;;;7555736;77;26347;-57
2022/08/27 03:20:05;;;;;;;6.20;3.95;;;25.40;92.20;;;;;;7539895;77;26265;-57
2022/08/27 03:30:11;;;;;;;8.38;4.28;;;25.40;92.20;;;;;;7534490;77;26739;-58
2022/08/27 03:40:14;;;;;;;5.72;3.90;;;25.30;92.30;;;;;;7543704;77;26828;-58
2022/08/27 03:50:17;;;;;;;5.20;3.67;;;25.30;92.30;;;;;;7547470;77;26304;-56
2022/08/27 04:00:19;;;;;;;6.28;4.45;;;25.30;92.20;;;;;;7516779;77;26253;-57
2022/08/27 04:10:22;;;;;;;6.10;4.40;;;25.30;92.40;;;;;;7530302;77;26740;-57
2022/08/27 04:20:25;;;;;;;4.67;3.67;;;25.30;92.40;;;;;;7549795;77;26269;-57
2022/08/27 04:30:28;;;;;;;6.65;3.80;;;25.30;92.40;;;;;;7560714;77;26272;-58
2022/08/27 04:50:51;;;;;;;5.85;3.80;;;25.20;92.40;;;;;;7545307;77;26780;-59
2022/08/27 05:00:58;;;;;;;5.80;3.67;;;25.20;92.30;;;;;;7545523;77;26334;-59
2022/08/27 05:11:01;;;;;;;6.50;4.03;;;25.20;92.40;;;;;;7553180;77;26273;-58
2022/08/27 05:21:05;;;;;;;5.53;3.52;;;25.10;92.30;;;;;;7550847;77;26355;-59
2022/08/27 05:31:10;;;;;;;5.25;4.00;;;25.10;92.30;;;;;;7548185;77;26336;-59
2022/08/27 05:41:15;;;;;;;4.85;3.47;;;25.10;92.40;;;;;;7540374;77;26272;-59
2022/08/27 05:51:24;;;;;;;9.68;3.80;;;25.10;92.60;;;;;;7526651;77;26263;-58
2022/08/27 06:01:29;;;;;;;4.42;3.62;;;25.10;92.50;;;;;;7540614;77;26386;-57
2022/08/27 06:11:31;;;;;;;10.05;4.70;;;25.10;92.40;;;;;;7508954;77;26325;-55
2022/08/27 06:21:34;;;;;;;5.97;3.75;;;25.10;92.60;;;;;;7527492;77;26413;-57
2022/08/27 06:31:38;;;;;;;5.25;3.65;;;25.00;92.50;;;;;;7494110;77;26317;-54
2022/08/27 06:41:42;;;;;;;6.58;3.75;;;25.00;92.50;;;;;;7487155;77;26328;-55
2022/08/27 06:51:47;;;;;;;6.58;3.62;;;25.00;92.70;;;;;;7538844;77;26278;-54
2022/08/27 07:01:50;;;;;;;4.90;3.60;;;25.00;92.50;;;;;;7550799;77;26743;-57
2022/08/27 07:11:53;;;;;;;6.42;3.30;;;25.00;92.50;;;;;;7556555;77;26786;-58
2022/08/27 07:21:56;;;;;;;6.92;3.98;;;24.90;92.50;;;;;;7520078;77;26274;-55
2022/08/27 07:31:58;;;;;;;7.87;4.25;;;24.90;92.70;;;;;;7506251;77;26329;-56
2022/08/27 07:52:21;;;;;;;5.67;3.15;;;24.90;92.80;;;;;;7498161;77;26281;-59
2022/08/27 08:02:24;;;;;;;5.45;3.27;;;24.90;92.60;;;;;;7531777;77;26268;-58
2022/08/27 08:12:26;;;;;;;5.67;3.37;;;24.90;92.60;;;;;;7529504;77;26251;-58
2022/08/27 08:22:29;;;;;;;4.50;3.27;;;24.90;92.60;;;;;;7511759;77;26298;-59
2022/08/27 08:32:31;;;;;;;9.38;3.47;;;24.90;92.60;;;;;;7514372;77;26254;-57
2022/08/27 08:42:43;;;;;;;5.90;3.52;;;24.90;92.80;;;;;;7492329;77;27048;-53
2022/08/27 08:53:00;;;;;;;11.93;3.30;;;24.90;92.70;;;;;;7514999;77;26320;-54
2022/08/27 09:03:03;;;;;;;7.85;3.25;;;24.90;92.80;;;;;;7544143;77;26852;-56
2022/08/27 09:13:08;;;;;;;10.90;3.65;;;24.90;92.60;;;;;;7525544;77;26597;-57
2022/08/27 09:23:25;;;;;;;10.23;3.45;;;24.90;92.70;;;;;;7538475;77;26359;-58
2022/08/27 09:33:28;;;;;;;14.45;3.58;;;24.90;92.80;;;;;;7534435;77;26774;-59
2022/08/27 09:43:30;;;;;;;7.55;3.60;;;24.90;92.60;;;;;;7545376;77;26331;-57
2022/08/27 09:53:54;;;;;;;4.17;2.92;;;24.90;92.70;;;;;;7541119;77;26810;-58
2022/08/27 10:04:12;;;;;;;7.65;3.55;;;24.90;92.50;;;;;;7617641;74;26304;-60
2022/08/27 10:14:20;;;;;;;9.18;3.10;;;24.90;92.50;;;;;;7554242;77;26730;-63
2022/08/27 10:24:38;;;;;;;5.47;2.80;;;24.90;92.80;;;;;;7441493;78;26254;-63
2022/08/27 10:34:46;;;;;;;5.17;3.00;;;24.90;92.30;;;;;;7538869;78;26322;-63
2022/08/27 10:44:53;;;;;;;8.03;2.90;;;24.90;92.30;;;;;;7571517;77;26370;-64
2022/08/27 10:55:14;;;;;;;4.92;2.72;;;24.90;92.20;;;;;;7575170;78;26808;-61
2022/08/27 11:05:19;;;;;;;9.60;4.00;;;24.90;92.20;;;;;;7577752;77;26336;-63
2022/08/27 11:15:28;;;;;;;8.68;3.10;;;24.90;92.20;;;;;;7514241;78;26565;-62
2022/08/27 11:25:39;;;;;;;5.87;2.50;;;24.90;92.30;;;;;;7516092;77;26258;-63
2022/08/27 11:35:54;;;;;;;8.13;2.65;;;25.00;92.40;;;;;;7524308;78;26238;-63
2022/08/27 11:45:59;;;;;;;7.12;3.67;;;25.00;92.30;;;;;;7523668;78;26738;-62
2022/08/27 11:56:21;;;;;;;6.67;3.08;;;25.00;92.50;;;;;;7520213;77;26253;-63
2022/08/27 12:06:25;;;;;;;6.72;3.20;;;25.00;92.30;;;;;;7522460;77;26258;-63
2022/08/27 12:16:50;;;;;;;10.28;3.37;;;25.00;92.40;;;;;;7546388;77;26708;-63
2022/08/27 12:27:01;;;;;;;7.72;3.40;;;25.00;92.50;;;;;;7572220;77;26250;-63
2022/08/27 12:37:05;;;;;;;7.37;4.17;;;25.00;92.50;;;;;;7575369;77;26243;-63
2022/08/27 12:47:12;;;;;;;8.68;3.92;;;25.00;92.60;;;;;;7523283;77;26270;-63
2022/08/27 12:57:34;;;;;;;9.43;4.30;;;25.10;92.50;;;;;;7531185;78;26317;-64
2022/08/27 13:07:42;;;;;;;5.97;3.60;;;25.10;92.50;;;;;;7530482;77;26719;-63
2022/08/27 13:17:46;;;;;;;6.78;4.22;;;25.10;92.50;;;;;;7525612;78;26246;-62
2022/08/27 13:28:06;;;;;;;8.43;3.92;;;25.10;92.50;;;;;;7517274;77;26308;-62
2022/08/27 13:38:08;;;;;;;6.95;4.60;;;25.10;92.50;;;;;;7538107;77;26778;-61
2022/08/27 13:48:13;;;;;;;6.08;4.20;;;25.10;92.50;;;;;;7536423;77;26249;-62
2022/08/27 13:58:21;;;;;;;6.83;4.00;;;25.10;92.40;;;;;;7527175;77;26269;-61
2022/08/27 14:08:27;;;;;;;6.12;4.37;;;25.10;92.50;;;;;;7536432;77;26849;-61
2022/08/27 14:18:32;;;;;;;7.15;4.42;;;25.10;92.40;;;;;;7525061;78;26246;-63
2022/08/27 14:28:35;;;;;;;7.10;4.83;;;25.10;92.40;;;;;;7522756;78;26231;-63
2022/08/27 14:38:41;;;;;;;6.95;4.37;;;25.10;92.50;;;;;;7532745;77;26922;-61
2022/08/27 14:48:44;;;;;;;6.53;5.17;;;25.10;92.50;;;;;;7539537;78;26731;-63
2022/08/27 14:58:46;;;;;;;5.72;4.55;;;25.10;92.50;;;;;;7511351;78;26244;-62
2022/08/27 15:08:50;;;;;;;16.35;5.65;;;25.10;92.50;;;;;;7521814;77;26330;-61
2022/08/27 15:18:52;;;;;;;16.35;6.08;;;25.10;92.70;;;;;;7508627;78;26238;-60
2022/08/27 15:28:55;;;;;;;25.60;8.35;;;25.10;92.80;;;;;;7528765;78;26291;-61
2022/08/27 15:38:58;;;;;;;15.60;7.33;;;25.10;92.70;;;;;;7522462;78;26315;-62
2022/08/27 15:49:00;;;;;;;20.23;7.08;;;25.10;93.20;;;;;;7526565;78;26266;-63
2022/08/27 15:59:03;;;;;;;14.68;7.30;;;25.10;93.60;;;;;;7564442;77;26764;-61
2022/08/27 16:09:05;;;;;;;10.55;6.87;;;25.10;94.40;;;;;;7574976;77;26380;-60
2022/08/27 16:19:08;;;;;;;9.53;7.22;;;25.00;93.70;;;;;;7573573;77;26872;-60
2022/08/27 16:29:11;;;;;;;9.00;6.03;;;25.00;93.70;;;;;;7563612;77;26383;-62
2022/08/27 16:39:13;;;;;;;13.45;6.62;;;25.10;93.70;;;;;;7573519;77;26317;-62
2022/08/27 16:59:37;;;;;;;8.83;5.60;;;25.00;93.70;;;;;;7568996;77;26919;-61
2022/08/27 17:09:39;;;;;;;8.10;5.05;;;25.00;93.80;;;;;;7577716;77;26377;-62
2022/08/27 17:19:42;;;;;;;6.70;4.42;;;25.00;93.70;;;;;;7577791;77;26249;-62
2022/08/27 17:29:44;;;;;;;6.22;4.47;;;25.00;93.70;;;;;;7577570;77;26262;-62
2022/08/27 17:39:47;;;;;;;6.22;4.15;;;24.90;93.60;;;;;;7577704;77;26258;-60
2022/08/27 17:49:50;;;;;;;6.15;3.85;;;24.90;93.60;;;;;;7577720;77;26249;-64
2022/08/27 17:59:53;;;;;;;7.97;3.72;;;24.80;93.50;;;;;;7572650;77;26254;-63
2022/08/27 18:09:56;;;;;;;5.65;3.55;;;24.90;93.10;;;;;;7561945;78;26353;-62
2022/08/27 18:19:59;;;;;;;6.50;3.83;;;24.80;93.10;;;;;;7533436;78;26720;-62
2022/08/27 18:30:01;;;;;;;7.62;3.65;;;24.80;93.00;;;;;;7572314;77;26258;-63
2022/08/27 18:40:04;;;;;;;5.83;3.12;;;24.80;93.00;;;;;;7573285;77;26269;-62
2022/08/27 18:50:08;;;;;;;7.58;3.02;;;24.70;92.80;;;;;;7466556;78;26273;-61
2022/08/27 19:00:13;;;;;;;4.08;2.77;;;24.70;92.70;;;;;;7577660;77;26316;-64
2022/08/27 19:10:16;;;;;;;4.10;3.02;;;24.70;92.80;;;;;;7577376;77;26332;-63
2022/08/27 19:20:19;;;;;;;7.92;2.92;;;24.60;92.70;;;;;;7576963;77;26778;-63
2022/08/27 19:30:22;;;;;;;5.62;2.67;;;24.60;92.80;;;;;;7516039;78;26700;-60
2022/08/27 19:40:24;;;;;;;4.58;2.50;;;24.60;92.80;;;;;;7523545;78;26772;-61
2022/08/27 19:50:27;;;;;;;3.60;2.83;;;24.60;92.70;;;;;;7539365;77;26272;-60
2022/08/27 20:00:29;;;;;;;6.30;2.33;;;24.50;92.70;;;;;;7574917;77;26818;-60
2022/08/27 20:10:32;;;;;;;8.20;2.12;;;24.50;92.70;;;;;;7540299;77;26258;-62
2022/08/27 20:20:35;;;;;;;12.28;2.87;;;24.50;92.80;;;;;;7571868;77;26303;-59
2022/08/27 20:30:39;;;;;;;7.40;2.62;;;24.50;92.80;;;;;;7570501;77;26575;-60
2022/08/27 20:40:41;;;;;;;6.65;2.67;;;24.50;92.70;;;;;;7541801;78;26358;-60
2022/08/27 20:50:44;;;;;;;4.50;2.45;;;24.50;92.70;;;;;;7529991;78;26366;-60
2022/08/27 21:00:46;;;;;;;4.95;2.42;;;24.40;92.70;;;;;;7571320;77;26797;-61
2022/08/27 21:10:55;;;;;;;5.58;3.30;;;24.40;92.70;;;;;;7519822;78;26320;-60
2022/08/27 21:21:00;;;;;;;5.55;3.00;;;24.40;92.70;;;;;;7533386;78;26280;-60
2022/08/27 21:31:02;;;;;;;4.92;2.70;;;24.40;92.70;;;;;;7558682;77;26242;-59
2022/08/27 21:41:05;;;;;;;3.90;2.25;;;24.40;92.60;;;;;;7522610;78;26254;-60
2022/08/27 21:51:09;;;;;;;4.83;2.30;;;24.30;92.30;;;;;;7512202;77;26365;-63
2022/08/27 22:01:12;;;;;;;8.35;2.55;;;24.30;92.70;;;;;;7515192;78;26744;-59
2022/08/27 22:11:15;;;;;;;14.80;3.02;;;24.20;92.70;;;;;;7519935;77;26308;-61
2022/08/27 22:21:18;;;;;;;7.42;3.10;;;24.20;92.80;;;;;;7518308;78;26304;-61
2022/08/27 22:31:21;;;;;;;12.75;4.65;;;24.20;92.70;;;;;;7528264;78;26778;-61
2022/08/27 22:41:23;;;;;;;13.30;2.50;;;24.20;92.80;;;;;;7526107;78;26327;-61
2022/08/27 22:51:26;;;;;;;6.15;2.67;;;24.20;92.60;;;;;;7515072;78;26899;-62
2022/08/27 23:01:28;;;;;;;5.35;2.75;;;24.20;92.60;;;;;;7531681;77;26257;-62
2022/08/27 23:11:31;;;;;;;6.20;2.35;;;24.10;92.50;;;;;;7562869;77;26265;-62
2022/08/27 23:21:34;;;;;;;3.50;2.40;;;24.10;92.50;;;;;;7560906;78;26258;-61
2022/08/27 23:31:36;;;;;;;2.47;2.20;;;24.10;92.60;;;;;;7577955;77;26250;-62
2022/08/27 23:41:40;;;;;;;2.95;2.00;;;24.10;92.50;;;;;;7575487;77;26893;-61
2022/08/27 23:51:42;;;;;;;3.90;2.20;;;24.10;92.50;;;;;;7551275;78;26258;-61
